»·PEaware :: N318DA KLAX-KSNA

N318DA :: KLAX-KSNA

FLIGHT INFORMATION

Flight Status: Arrived
Operator: Privately registered:
United States
More flights under this callsign
Pilot: Roland T. (32460)
Aircraft: CIRRUS SR-22
(SR22)
More flights by this aircraft type
Origin: KLAX Los Angeles Intl
United States
Destination: KSNA John Wayne-Orange Co
United States
More flights between these airports :: More routes between these airports
Route: SLI8 SLI
File this flight plan on PilotEdge
Remarks:
Altitude:
(Current/Filed)
4,000ft
Speed:
(Current/Filed)
160kts
Departed: 30-Nov-20 11:39 AM
Arrived: 30-Nov-20 12:11 PM
Distance/Time
Traveled:
31nm/0:32
Distance/Time
To Go:
Arrived

Flight Plot

Page will automatically refresh every two minutes.

Flight plan parsing failed; only flown route is shown


Map Options




Map Legend


Flown Route
Filed Route
Departure Airport
Arrival Airport
Navaid (VOR, NDB)
Fix

Horizontal Profiles

Position Reports

Time Latitude Longitude Heading Altitude Ground
Speed
30-Nov-20 11:15 33.941158 -118.392839 359 120ft 0kts
30-Nov-20 11:16 33.941158 -118.392839 359 120ft 0kts
30-Nov-20 11:17 33.941158 -118.392839 359 120ft 0kts
30-Nov-20 11:18 33.941158 -118.392839 359 120ft 0kts
30-Nov-20 11:19 33.941158 -118.392839 359 120ft 0kts
30-Nov-20 11:20 33.941158 -118.392839 359 120ft 0kts
30-Nov-20 11:21 33.941158 -118.392839 359 120ft 0kts
30-Nov-20 11:22 33.941158 -118.392839 359 120ft 0kts
30-Nov-20 11:23 33.941158 -118.392839 359 120ft 0kts
30-Nov-20 11:24 33.941158 -118.392839 359 120ft 0kts
30-Nov-20 11:25 33.941158 -118.392839 359 120ft 0kts
30-Nov-20 11:26 33.941158 -118.392839 359 120ft 0kts
30-Nov-20 11:27 33.941158 -118.392839 359 120ft 0kts
30-Nov-20 11:28 33.941158 -118.392839 359 120ft 0kts
30-Nov-20 11:29 33.941158 -118.392839 359 120ft 0kts
30-Nov-20 11:30 33.941158 -118.392839 359 120ft 0kts
30-Nov-20 11:31 33.941158 -118.392839 359 120ft 0kts
30-Nov-20 11:32 33.940303 -118.392295 221 120ft 0kts
30-Nov-20 11:33 33.941002 -118.385490 77 120ft 25kts
30-Nov-20 11:34 33.940563 -118.382951 102 120ft 10kts
30-Nov-20 11:35 33.940772 -118.380177 123 120ft 6kts
30-Nov-20 11:36 33.940727 -118.380126 146 120ft 0kts
30-Nov-20 11:37 33.940727 -118.380126 146 120ft 0kts
30-Nov-20 11:38 33.938804 -118.390076 263 214ft 87kts
30-Nov-20 11:39 33.936055 -118.418535 261 1317ft 90kts
30-Nov-20 11:40 33.932359 -118.447979 261 2630ft 90kts
30-Nov-20 11:41 33.914277 -118.478523 214 3289ft 135kts
30-Nov-20 11:42 33.879499 -118.492037 157 3986ft 152kts
30-Nov-20 11:43 33.838948 -118.466904 152 3998ft 169kts
30-Nov-20 11:44 33.797333 -118.440650 153 3999ft 170kts
30-Nov-20 11:45 33.775368 -118.395280 93 4002ft 171kts
30-Nov-20 11:46 33.772810 -118.337969 93 3998ft 171kts
30-Nov-20 11:47 33.768933 -118.280882 97 3998ft 171kts
30-Nov-20 11:48 33.769971 -118.224476 79 3998ft 171kts
30-Nov-20 11:49 33.774483 -118.167306 85 3999ft 171kts
30-Nov-20 11:50 33.778890 -118.110358 84 3999ft 171kts
30-Nov-20 11:51 33.783398 -118.053106 84 3998ft 171kts
30-Nov-20 11:52 33.803769 -118.003540 66 3998ft 171kts
30-Nov-20 11:53 33.824525 -117.952017 63 3998ft 171kts
30-Nov-20 11:54 33.845317 -117.900369 64 3997ft 171kts
30-Nov-20 11:55 33.865980 -117.848785 64 3998ft 171kts
30-Nov-20 11:56 33.886668 -117.797166 64 3999ft 171kts
30-Nov-20 11:57 33.905733 -117.748329 66 3999ft 150kts
30-Nov-20 11:58 33.926183 -117.706373 34 3974ft 147kts
30-Nov-20 11:59 33.963438 -117.680807 7 3507ft 155kts
30-Nov-20 12:00 33.972681 -117.709475 183 3496ft 144kts
30-Nov-20 12:01 33.933168 -117.708087 196 3500ft 144kts
30-Nov-20 12:02 33.896715 -117.728948 211 3396ft 146kts
30-Nov-20 12:03 33.861674 -117.752882 209 3396ft 144kts
30-Nov-20 12:04 33.825484 -117.775933 208 3123ft 149kts
30-Nov-20 12:05 33.796460 -117.793492 208 2558ft 106kts
30-Nov-20 12:06 33.770025 -117.810005 208 1995ft 107kts
30-Nov-20 12:07 33.744197 -117.826294 209 1443ft 106kts
30-Nov-20 12:08 33.717179 -117.843106 208 853ft 107kts
30-Nov-20 12:09 33.690618 -117.859646 208 297ft 98kts
30-Nov-20 12:10 33.675310 -117.868805 163 56ft 20kts
30-Nov-20 12:11 33.674653 -117.868583 168 56ft 0kts
30-Nov-20 12:12 33.674569 -117.868557 164 57ft 6kts
30-Nov-20 12:13 33.673720 -117.867309 131 59ft 6kts
30-Nov-20 12:14 33.674671 -117.865518 160 53ft 9kts
30-Nov-20 12:15 33.673891 -117.865600 249 54ft 0kts
30-Nov-20 12:16 33.673891 -117.865600 249 54ft 0kts

Navigation Log

Ident Type
Flight plan parsing failed, navigation log unavailable